Ana Sayfa
METAR-TAF:

METAR-TAF

Havaalanları :

Suceava, Romanya

Enlem: 47-39N, Boylam: 026-15E, yükseklik: 351 m

Güncel hava durumu gözlemi

Rapor saat 15:30 UTC de 15 dakika önce yapıldı.
Rüzgar doğu/kuzeydoğudan 12 kt, kuzeydoğu ve doğu arasında değişken
Sıcaklık 22°C
Nem 41%
Basınç 1022 hPa
Görüş mesafesi 10 km veya daha fazla
1500 m altında bulut yok ve kümülonimbus yok

METAR: LRSV 261530Z 06012KT 040V100 CAVOK 22/08 Q1022

Saat: 18:45 (15:45 UTC)


TAF: eksik

4.000'den fazla havaalanı için hava durumu gözlemleri ve tahminleri (METAR ve TAF raporları).

Kullanılabilir istasyonlar harita üzerinde sarı ve kırmızı noktalarla gösterilir.

İstasyonun adını görmek için fareyi noktanın üzerinde gezdirin.

Sonrasında hava gözlem ve tahminlerini görmek için tıklayın.

Haritayı değiştirmek için: yaklaştırmak için siyah artı işaretli yeşil düğmeye ve uzaklaştırmak için de eksi işaretli düğmeye hızla tıklayın; bitişik haritalar için yeşil okları kullanın.


METAR-TAF: